• Join FlightAware (Why Join?)
  • Login
  • US Flag 
10:10AM EDT


 

Airport Tracker/Info


-or-


 

Live Flight TrackerFlight Track Log ✈ SKW6345 ✈ 17-Aug-2013 ✈ KSFO - KBZN

Flight Track Log - Related Links

Times and Time Zones

All times are in EDT time to prevent confusion due to time zone crossing. See the SKW6345 flight status page for this flight to view local times or setup timezone preferences in your user account.

Time Position Orientation Groundspeed Altitude Reporting Facility
EDT Latitude Longitude Course Direction KTS MPH feet Rate Location/Type
11:13AM 37.6667 -122.3167 38° Northeast 187 215 2,000  Level Northern Cal TRACON
11:14AM 37.7000 -122.2833 38° Northeast 223 257 3,700 2,040 Climbing Northern Cal TRACON
11:15AM 37.6259 -122.4036 120° Southeast  Level FlightAware Approximate
11:15AM 37.7500 -122.2167 47° Northeast 262 302 5,700  Level Northern Cal TRACON
11:16AM 37.6981 -122.2853 38° Northeast  Level FlightAware Approximate
11:16AM 37.8167 -122.1500 38° Northeast 284 327 7,900  Level Northern Cal TRACON
11:17AM 37.8043 -122.1790 38° Northeast  Level FlightAware Approximate
11:17AM 37.8858 -122.0856 36° Northeast 292 336 10,600  Level Oakland Center
11:18AM 37.8964 -122.0870 38° Northeast  Level FlightAware Approximate
11:18AM 37.9550 -122.0203 37° Northeast 311 358 12,200  Level Oakland Center
11:19AM 38.0311 -121.9469 37° Northeast 343 395 13,500 1,320 Climbing Oakland Center
11:20AM 38.1097 -121.8725 37° Northeast 353 406 14,900 1,440 Climbing Oakland Center
11:21AM 38.1906 -121.7950 37° Northeast 363 418 16,500 1,440 Climbing Oakland Center
11:22AM 38.2725 -121.7167 37° Northeast 370 426 17,900 1,500 Climbing Oakland Center
11:23AM 38.3728 -121.6203 37° Northeast 378 435 19,600 1,320 Climbing Oakland Center
11:24AM 38.4514 -121.5389 39° Northeast 382 440 20,700 1,020 Climbing Oakland Center
11:25AM 38.5200 -121.4217 53° Northeast 393 452 21,700 960 Climbing Oakland Center
11:26AM 38.5856 -121.3064 54° Northeast 401 461 22,700 1,020 Climbing Oakland Center
11:27AM 38.6533 -121.1911 53° Northeast 406 467 23,800 1,020 Climbing Oakland Center
11:28AM 38.7247 -121.0686 53° Northeast 410 472 24,800 840 Climbing Oakland Center
11:29AM 38.7931 -120.9494 54° Northeast 413 475 25,600 660 Climbing Oakland Center
11:30AM 38.8617 -120.8283 54° Northeast 417 480 26,200 540 Climbing Oakland Center
11:31AM 38.9336 -120.7061 53° Northeast 427 491 26,800 660 Climbing Oakland Center
11:32AM 39.0047 -120.5817 54° Northeast 432 497 27,600 660 Climbing Oakland Center
11:33AM 39.0767 -120.4569 53° Northeast 434 499 28,200 540 Climbing Oakland Center
11:34AM 39.1492 -120.3303 54° Northeast 438 504 28,800 480 Climbing Oakland Center
11:35AM 39.2211 -120.2011 54° Northeast 443 510 29,200 480 Climbing Oakland Center
11:36AM 39.3056 -120.0561 53° Northeast 444 511 29,800 600 Climbing Oakland Center
11:37AM 39.3789 -119.9269 54° Northeast 445 512 30,500 540 Climbing Oakland Center
11:38AM 39.4508 -119.8000 54° Northeast 441 507 31,000 240 Climbing Oakland Center
11:40AM 39.5444 -119.6917 42° Northeast 447 514 31,000  Level Oakland Center
11:41AM 39.6364 -119.5822 42° Northeast 447 514 31,000  Level Oakland Center
11:42AM 39.7275 -119.4742 42° Northeast 443 510 31,000  Level Oakland Center
11:43AM 39.8189 -119.3656 42° Northeast 442 509 31,000  Level Oakland Center
11:44AM 39.9108 -119.2547 43° Northeast 446 513 31,000  Level Oakland Center
11:45AM 40.0219 -119.1217 43° Northeast 448 516 31,000  Level Oakland Center
11:46AM 40.1142 -119.0119 42° Northeast 448 516 31,000  Level Oakland Center
11:47AM 40.2053 -118.9000 43° Northeast 447 514 31,000  Level Oakland Center
11:48AM 40.2972 -118.7900 42° Northeast 447 514 31,000  Level Oakland Center
11:49AM 40.3894 -118.6767 43° Northeast 449 517 31,000  Level Oakland Center
11:50AM 40.4800 -118.5658 43° Northeast 447 514 31,000  Level Oakland Center
11:51AM 40.5700 -118.4539 43° Northeast 445 512 31,000  Level Oakland Center
11:52AM 40.6608 -118.3403 43° Northeast 447 514 31,000  Level Oakland Center
11:53AM 40.7517 -118.2286 43° Northeast 447 514 31,000  Level Oakland Center
11:54AM 40.8419 -118.1158 43° Northeast 446 513 31,000  Level Oakland Center
11:55AM 40.9336 -118.0011 43° Northeast 451 519 31,000  Level Oakland Center
11:56AM 41.0414 -117.8650 44° Northeast 448 516 31,000  Level Oakland Center
11:56AM 41.0794 -117.8178 43° Northeast 446 513 31,000  Level Salt Lake Center
11:57AM 41.1675 -117.7078 43° Northeast 449 517 31,000  Level Salt Lake Center
11:58AM 41.2678 -117.5781 44° Northeast 450 518 31,000  Level Salt Lake Center
11:59AM 41.3550 -117.4661 44° Northeast 452 520 31,000  Level Salt Lake Center
12:01PM 41.4561 -117.3378 44° Northeast 450 518 31,000  Level Salt Lake Center
12:02PM 41.5422 -117.2258 44° Northeast 450 518 31,000  Level Salt Lake Center
12:03PM 41.6433 -117.0956 44° Northeast 452 520 31,000  Level Salt Lake Center
12:04PM 41.7303 -116.9839 44° Northeast 451 519 31,000  Level Salt Lake Center
12:05PM 41.8306 -116.8486 45° Northeast 451 519 31,000  Level Salt Lake Center
12:06PM 41.9167 -116.7369 44° Northeast 451 519 31,000  Level Salt Lake Center
12:07PM 42.0019 -116.6242 44° Northeast 449 517 31,000  Level Salt Lake Center
12:08PM 42.1008 -116.4925 45° Northeast 449 517 31,000  Level Salt Lake Center
12:09PM 42.1864 -116.3800 44° Northeast 448 516 31,000  Level Salt Lake Center
12:10PM 42.2850 -116.2469 45° Northeast 448 516 31,000  Level Salt Lake Center
12:11PM 42.3703 -116.1342 44° Northeast 449 517 31,000  Level Salt Lake Center
12:12PM 42.4692 -116.0019 45° Northeast 448 516 31,000  Level Salt Lake Center
12:13PM 42.5536 -115.8883 45° Northeast 448 516 31,000  Level Salt Lake Center
12:14PM 42.6519 -115.7544 45° Northeast 449 517 31,000  Level Salt Lake Center
12:15PM 42.7364 -115.6394 45° Northeast 450 518 31,000  Level Salt Lake Center
12:16PM 42.8350 -115.5044 45° Northeast 450 518 31,000  Level Salt Lake Center
12:17PM 42.9197 -115.3906 45° Northeast 448 516 31,000  Level Salt Lake Center
12:18PM 43.0183 -115.2544 45° Northeast 451 519 31,000  Level Salt Lake Center
12:19PM 43.1019 -115.1383 45° Northeast 449 517 31,000  Level Salt Lake Center
12:20PM 43.2006 -115.0028 45° Northeast 451 519 31,000  Level Salt Lake Center
12:21PM 43.2850 -114.8844 46° Northeast 454 522 31,000  Level Salt Lake Center
12:22PM 43.3822 -114.7458 46° Northeast 452 520 31,000  Level Salt Lake Center
12:23PM 43.4667 -114.6272 46° Northeast 453 521 31,000  Level Salt Lake Center
12:24PM 43.5656 -114.4881 46° Northeast 454 522 31,000  Level Salt Lake Center
12:25PM 43.6506 -114.3678 46° Northeast 458 527 31,000  Level Salt Lake Center
12:26PM 43.7489 -114.2278 46° Northeast 458 527 31,000  Level Salt Lake Center
12:27PM 43.8333 -114.1061 46° Northeast 458 527 31,000  Level Salt Lake Center
12:28PM 43.9322 -113.9644 46° Northeast 460 529 31,000  Level Salt Lake Center
12:29PM 44.0164 -113.8439 46° Northeast 458 527 31,000  Level Salt Lake Center
12:30PM 44.1003 -113.7203 47° Northeast 458 527 31,000  Level Salt Lake Center
12:32PM 44.1983 -113.5753 47° Northeast 459 528 31,000  Level Salt Lake Center
12:33PM 44.2778 -113.4506 48° Northeast 454 522 31,000  Level Salt Lake Center
12:34PM 44.3783 -113.3058 46° Northeast 460 529 31,000  Level Salt Lake Center
12:35PM 44.4617 -113.1808 47° Northeast 461 531 31,000  Level Salt Lake Center
12:36PM 44.5603 -113.0353 46° Northeast 459 528 31,000 -360 Level Salt Lake Center
12:37PM 44.6453 -112.9069 47° Northeast 465 535 30,300 -900 Descending Salt Lake Center
12:38PM 44.7489 -112.7508 47° Northeast 485 558 29,200 -1,020 Descending Salt Lake Center
12:39PM 44.8381 -112.6153 47° Northeast 491 565 28,200 -1,020 Descending Salt Lake Center
12:40PM 44.9419 -112.4567 47° Northeast 491 565 27,100 -600 Descending Salt Lake Center
12:41PM 45.0306 -112.3228 47° Northeast 486 559 27,000 -60 Descending Salt Lake Center
12:42PM 45.1161 -112.1906 47° Northeast 478 550 27,000 -600 Level Salt Lake Center
12:43PM 45.2119 -112.0411 48° Northeast 476 548 25,800 -2,340 Descending Salt Lake Center
12:44PM 45.3000 -111.9089 47° Northeast 464 534 22,200 -3,480 Descending Salt Lake Center
12:45PM 45.3936 -111.7906 42° Northeast 454 522 18,700 -3,360 Descending Salt Lake Center
12:46PM 45.4853 -111.6792 40° Northeast 440 506 15,300 -3,300 Descending Salt Lake Center
12:47PM 45.5922 -111.5567 39° Northeast 417 480 12,000 -2,220 Descending Salt Lake Center
12:48PM 45.6653 -111.4719 39° Northeast 366 421 10,800 -1,500 Descending Salt Lake Center
12:49PM 45.7444 -111.4289 21° North 324 373 8,900 -1,740 Descending Salt Lake Center
12:50PM 45.8183 -111.3811 24° Northeast 301 346 7,300 -1,020 Descending Salt Lake Center
12:51PM 45.8514 -111.3053 58° Northeast 257 296 6,900 -840 Descending Salt Lake Center
12:52PM 45.8356 -111.2336 108° East 213 245 5,600 -1,020 Descending Salt Lake Center
12:53PM 45.8058 -111.1917 135° Southeast 172 198 4,900 -540 Descending Salt Lake Center
12:54PM 45.7719 -111.1453 136° Southeast 162 186 4,500 -420 Descending Salt Lake Center